LSMD Airport Information

Runway Information
Runway 11 Length 7726 ft width 130 ft
Elevation 1427 ft Threshold 0 ft Heading 108
Runway 29 Length 7726 ft Width 130 ft
Elevation 1470 ft Threshold 0 ft Heading 288
Runway 11R Length 2130 ft width 98 ft
Elevation 1428 ft Threshold 0 ft Heading 108
Runway 29L Length 2130 ft Width 98 ft
Elevation 1437 ft Threshold 0 ft Heading 288
Airport Frequencies
Type ARR Name ARR Frequency 37.68 MHZ
Type ARR Name ARR Frequency 134.925 MHZ
Type DEP Name DEP Frequency 139.5 MHZ
Type INFO Name INFO Frequency 138.05 MHZ
Type RDR Name RADAR Frequency 139.5 MHZ
Type TWR Name TWR Frequency 128.475 MHZ
Airport Navaids
Airport Weather Information & NOTAM
ADDS - METARS form results

(0202 UTC 13 December 2018)
Data provider http://aviationweather.gov/metar/data/
 
METAR text: LSMD 130150Z AUTO 11004KT 9999NDV FEW024 BKN031 M02/M05 Q1016 RMK
Conditions at: LSMD (DUBENDORF , CH) observed 0150 UTC 13 December 2018
Temperature: -2.0°C (28°F)
Dewpoint: -5.0°C (23°F) [RH = 80%]
Pressure (altimeter): 30.00 inches Hg (1016.0 mb)
Winds: from the ESE (110 degrees) at 5 MPH (4 knots; 2.1 m/s)
Visibility: missing
Ceiling: 3100 feet AGL
Clouds: few clouds at 2400 feet AGL
broken clouds at 3100 feet AGL
Weather: no significant weather observed at this time

METAR text: LSMD 130120Z AUTO 12005KT 9999NDV FEW028 BKN032 M01/M05 Q1016 RMK
Conditions at: LSMD (DUBENDORF , CH) observed 0120 UTC 13 December 2018
Temperature: -1.0°C (30°F)
Dewpoint: -5.0°C (23°F) [RH = 74%]
Pressure (altimeter): 30.00 inches Hg (1016.0 mb)
Winds: from the ESE (120 degrees) at 6 MPH (5 knots; 2.6 m/s)
Visibility: missing
Ceiling: 3200 feet AGL
Clouds: few clouds at 2800 feet AGL
broken clouds at 3200 feet AGL
Weather: no significant weather observed at this time